sensor_id;sensor_type;location;lat;lon;timestamp;P1;durP1;ratioP1;P2;durP2;ratioP2
71464;SDS011;59274;49.874;9.154;2022-07-29T00:00:28;6.63;;;2.97;;
71464;SDS011;59274;49.874;9.154;2022-07-29T00:02:53;5.72;;;2.83;;
71464;SDS011;59274;49.874;9.154;2022-07-29T00:05:19;5.60;;;2.47;;
71464;SDS011;59274;49.874;9.154;2022-07-29T00:07:44;5.23;;;2.60;;
71464;SDS011;59274;49.874;9.154;2022-07-29T00:10:10;4.70;;;2.70;;
71464;SDS011;59274;49.874;9.154;2022-07-29T00:12:35;4.78;;;2.30;;
71464;SDS011;59274;49.874;9.154;2022-07-29T00:15:01;6.50;;;2.60;;
71464;SDS011;59274;49.874;9.154;2022-07-29T00:17:26;6.50;;;2.10;;
71464;SDS011;59274;49.874;9.154;2022-07-29T00:19:52;9.57;;;2.90;;
71464;SDS011;59274;49.874;9.154;2022-07-29T00:22:18;6.10;;;2.87;;
71464;SDS011;59274;49.874;9.154;2022-07-29T00:24:46;7.78;;;3.50;;
71464;SDS011;59274;49.874;9.154;2022-07-29T00:27:12;6.15;;;2.83;;
71464;SDS011;59274;49.874;9.154;2022-07-29T00:29:38;5.07;;;2.80;;
71464;SDS011;59274;49.874;9.154;2022-07-29T00:32:03;7.20;;;3.60;;
71464;SDS011;59274;49.874;9.154;2022-07-29T00:34:29;7.22;;;3.25;;
71464;SDS011;59274;49.874;9.154;2022-07-29T00:37:13;8.10;;;3.30;;
71464;SDS011;59274;49.874;9.154;2022-07-29T00:39:39;6.72;;;3.00;;
71464;SDS011;59274;49.874;9.154;2022-07-29T00:42:04;6.87;;;3.53;;
71464;SDS011;59274;49.874;9.154;2022-07-29T00:44:30;6.70;;;3.35;;
71464;SDS011;59274;49.874;9.154;2022-07-29T00:46:56;6.43;;;3.30;;
71464;SDS011;59274;49.874;9.154;2022-07-29T00:49:21;8.25;;;3.63;;
71464;SDS011;59274;49.874;9.154;2022-07-29T00:51:47;8.13;;;3.50;;
71464;SDS011;59274;49.874;9.154;2022-07-29T00:54:13;7.47;;;3.50;;
71464;SDS011;59274;49.874;9.154;2022-07-29T00:56:39;7.00;;;3.23;;
71464;SDS011;59274;49.874;9.154;2022-07-29T00:59:04;7.40;;;3.40;;
71464;SDS011;59274;49.874;9.154;2022-07-29T01:01:30;5.87;;;2.80;;
71464;SDS011;59274;49.874;9.154;2022-07-29T01:03:56;6.37;;;3.10;;
71464;SDS011;59274;49.874;9.154;2022-07-29T01:06:21;6.03;;;3.35;;
71464;SDS011;59274;49.874;9.154;2022-07-29T01:08:48;8.27;;;3.25;;
71464;SDS011;59274;49.874;9.154;2022-07-29T01:11:15;7.13;;;2.92;;
71464;SDS011;59274;49.874;9.154;2022-07-29T01:13:42;8.55;;;3.30;;
71464;SDS011;59274;49.874;9.154;2022-07-29T01:16:18;6.38;;;3.00;;
71464;SDS011;59274;49.874;9.154;2022-07-29T01:22:14;7.47;;;3.25;;
71464;SDS011;59274;49.874;9.154;2022-07-29T01:30:22;9.02;;;3.10;;
71464;SDS011;59274;49.874;9.154;2022-07-29T01:32:50;8.65;;;3.60;;
71464;SDS011;59274;49.874;9.154;2022-07-29T01:35:26;7.82;;;3.25;;
71464;SDS011;59274;49.874;9.154;2022-07-29T01:38:01;6.00;;;3.00;;
71464;SDS011;59274;49.874;9.154;2022-07-29T01:43:03;8.85;;;3.63;;
71464;SDS011;59274;49.874;9.154;2022-07-29T01:45:40;7.90;;;3.03;;
71464;SDS011;59274;49.874;9.154;2022-07-29T01:50:47;8.13;;;3.20;;
71464;SDS011;59274;49.874;9.154;2022-07-29T01:53:23;8.07;;;2.88;;
71464;SDS011;59274;49.874;9.154;2022-07-29T01:55:54;7.15;;;3.08;;
71464;SDS011;59274;49.874;9.154;2022-07-29T01:58:22;5.80;;;2.60;;
71464;SDS011;59274;49.874;9.154;2022-07-29T02:00:49;5.57;;;2.60;;
71464;SDS011;59274;49.874;9.154;2022-07-29T02:03:16;6.10;;;2.60;;
71464;SDS011;59274;49.874;9.154;2022-07-29T02:05:43;6.22;;;2.38;;
71464;SDS011;59274;49.874;9.154;2022-07-29T02:08:12;5.95;;;2.58;;
71464;SDS011;59274;49.874;9.154;2022-07-29T02:10:39;5.35;;;2.60;;
71464;SDS011;59274;49.874;9.154;2022-07-29T02:13:07;6.50;;;2.58;;
71464;SDS011;59274;49.874;9.154;2022-07-29T02:15:36;5.82;;;2.40;;
71464;SDS011;59274;49.874;9.154;2022-07-29T02:18:14;6.75;;;2.28;;
71464;SDS011;59274;49.874;9.154;2022-07-29T02:20:45;5.40;;;2.30;;
71464;SDS011;59274;49.874;9.154;2022-07-29T02:23:14;6.82;;;2.58;;
71464;SDS011;59274;49.874;9.154;2022-07-29T02:25:46;6.05;;;2.55;;
71464;SDS011;59274;49.874;9.154;2022-07-29T02:28:15;5.68;;;2.30;;
71464;SDS011;59274;49.874;9.154;2022-07-29T02:30:42;4.55;;;2.03;;
71464;SDS011;59274;49.874;9.154;2022-07-29T02:33:09;6.57;;;2.30;;
71464;SDS011;59274;49.874;9.154;2022-07-29T02:35:38;6.25;;;2.38;;
71464;SDS011;59274;49.874;9.154;2022-07-29T02:38:06;5.82;;;2.47;;
71464;SDS011;59274;49.874;9.154;2022-07-29T02:40:51;5.63;;;2.50;;
71464;SDS011;59274;49.874;9.154;2022-07-29T02:43:18;6.28;;;2.28;;
71464;SDS011;59274;49.874;9.154;2022-07-29T02:45:46;4.70;;;2.28;;
71464;SDS011;59274;49.874;9.154;2022-07-29T02:48:16;7.40;;;2.63;;
71464;SDS011;59274;49.874;9.154;2022-07-29T02:50:48;5.88;;;2.13;;
71464;SDS011;59274;49.874;9.154;2022-07-29T02:53:20;7.15;;;2.45;;
71464;SDS011;59274;49.874;9.154;2022-07-29T02:55:49;4.97;;;2.38;;
71464;SDS011;59274;49.874;9.154;2022-07-29T03:00:51;7.53;;;2.40;;
71464;SDS011;59274;49.874;9.154;2022-07-29T03:03:18;5.88;;;2.35;;
71464;SDS011;59274;49.874;9.154;2022-07-29T03:05:46;5.65;;;2.50;;
71464;SDS011;59274;49.874;9.154;2022-07-29T03:08:11;4.80;;;2.45;;
71464;SDS011;59274;49.874;9.154;2022-07-29T03:10:40;4.65;;;2.38;;
71464;SDS011;59274;49.874;9.154;2022-07-29T03:13:09;6.95;;;2.42;;
71464;SDS011;59274;49.874;9.154;2022-07-29T03:15:35;5.88;;;2.50;;
71464;SDS011;59274;49.874;9.154;2022-07-29T03:18:02;7.38;;;3.38;;
71464;SDS011;59274;49.874;9.154;2022-07-29T03:20:27;6.50;;;2.85;;
71464;SDS011;59274;49.874;9.154;2022-07-29T03:22:53;6.43;;;2.83;;
71464;SDS011;59274;49.874;9.154;2022-07-29T03:25:19;8.60;;;3.00;;
71464;SDS011;59274;49.874;9.154;2022-07-29T03:27:45;8.27;;;2.85;;
71464;SDS011;59274;49.874;9.154;2022-07-29T03:30:11;4.45;;;2.47;;
71464;SDS011;59274;49.874;9.154;2022-07-29T03:32:38;7.13;;;2.50;;
71464;SDS011;59274;49.874;9.154;2022-07-29T03:35:05;8.10;;;2.70;;
71464;SDS011;59274;49.874;9.154;2022-07-29T03:37:31;8.30;;;2.70;;
71464;SDS011;59274;49.874;9.154;2022-07-29T03:39:58;6.88;;;2.50;;
71464;SDS011;59274;49.874;9.154;2022-07-29T03:42:26;6.32;;;2.65;;
71464;SDS011;59274;49.874;9.154;2022-07-29T03:44:55;8.17;;;3.00;;
71464;SDS011;59274;49.874;9.154;2022-07-29T03:47:22;8.18;;;3.00;;
71464;SDS011;59274;49.874;9.154;2022-07-29T03:49:52;7.50;;;3.50;;
71464;SDS011;59274;49.874;9.154;2022-07-29T03:52:21;6.75;;;3.20;;
71464;SDS011;59274;49.874;9.154;2022-07-29T03:54:46;6.37;;;2.83;;
71464;SDS011;59274;49.874;9.154;2022-07-29T03:57:12;6.30;;;2.80;;
71464;SDS011;59274;49.874;9.154;2022-07-29T03:59:41;7.40;;;2.53;;
71464;SDS011;59274;49.874;9.154;2022-07-29T04:02:08;9.38;;;2.63;;
71464;SDS011;59274;49.874;9.154;2022-07-29T04:04:36;9.30;;;2.77;;
71464;SDS011;59274;49.874;9.154;2022-07-29T04:07:01;7.63;;;2.80;;
71464;SDS011;59274;49.874;9.154;2022-07-29T04:09:27;8.60;;;2.83;;
71464;SDS011;59274;49.874;9.154;2022-07-29T04:11:52;7.50;;;3.38;;
71464;SDS011;59274;49.874;9.154;2022-07-29T04:14:18;6.43;;;2.60;;
71464;SDS011;59274;49.874;9.154;2022-07-29T04:16:43;7.50;;;3.23;;
71464;SDS011;59274;49.874;9.154;2022-07-29T04:19:09;8.03;;;3.47;;
71464;SDS011;59274;49.874;9.154;2022-07-29T04:21:38;8.05;;;3.10;;
71464;SDS011;59274;49.874;9.154;2022-07-29T04:24:04;9.40;;;2.93;;
71464;SDS011;59274;49.874;9.154;2022-07-29T04:26:30;8.43;;;2.85;;
71464;SDS011;59274;49.874;9.154;2022-07-29T04:28:56;7.40;;;2.97;;
71464;SDS011;59274;49.874;9.154;2022-07-29T04:31:21;9.35;;;3.15;;
71464;SDS011;59274;49.874;9.154;2022-07-29T04:33:50;8.90;;;3.10;;
71464;SDS011;59274;49.874;9.154;2022-07-29T04:36:15;7.03;;;2.80;;
71464;SDS011;59274;49.874;9.154;2022-07-29T04:38:41;6.30;;;3.00;;
71464;SDS011;59274;49.874;9.154;2022-07-29T04:41:06;10.90;;;3.30;;
71464;SDS011;59274;49.874;9.154;2022-07-29T04:43:33;7.72;;;3.08;;
71464;SDS011;59274;49.874;9.154;2022-07-29T04:45:59;7.35;;;3.10;;
71464;SDS011;59274;49.874;9.154;2022-07-29T04:48:25;7.33;;;3.40;;
71464;SDS011;59274;49.874;9.154;2022-07-29T04:50:51;8.77;;;3.20;;
71464;SDS011;59274;49.874;9.154;2022-07-29T04:53:17;9.97;;;3.83;;
71464;SDS011;59274;49.874;9.154;2022-07-29T04:55:43;8.23;;;3.30;;
71464;SDS011;59274;49.874;9.154;2022-07-29T04:58:08;9.25;;;4.03;;
71464;SDS011;59274;49.874;9.154;2022-07-29T05:00:34;8.53;;;3.60;;
71464;SDS011;59274;49.874;9.154;2022-07-29T05:02:59;7.27;;;2.73;;
71464;SDS011;59274;49.874;9.154;2022-07-29T05:05:25;7.78;;;2.92;;
71464;SDS011;59274;49.874;9.154;2022-07-29T05:07:50;8.93;;;3.20;;
71464;SDS011;59274;49.874;9.154;2022-07-29T05:10:16;6.63;;;3.10;;
71464;SDS011;59274;49.874;9.154;2022-07-29T05:12:41;6.93;;;3.40;;
71464;SDS011;59274;49.874;9.154;2022-07-29T05:15:07;6.88;;;3.05;;
71464;SDS011;59274;49.874;9.154;2022-07-29T05:17:33;8.23;;;3.53;;
71464;SDS011;59274;49.874;9.154;2022-07-29T05:19:58;6.53;;;3.17;;
71464;SDS011;59274;49.874;9.154;2022-07-29T05:22:24;6.87;;;3.20;;
71464;SDS011;59274;49.874;9.154;2022-07-29T05:24:49;8.93;;;3.63;;
71464;SDS011;59274;49.874;9.154;2022-07-29T05:27:15;9.77;;;3.80;;
71464;SDS011;59274;49.874;9.154;2022-07-29T05:29:40;9.10;;;3.77;;
71464;SDS011;59274;49.874;9.154;2022-07-29T05:32:06;9.03;;;4.33;;
71464;SDS011;59274;49.874;9.154;2022-07-29T05:34:31;11.10;;;4.40;;
71464;SDS011;59274;49.874;9.154;2022-07-29T05:36:57;8.50;;;3.70;;
71464;SDS011;59274;49.874;9.154;2022-07-29T05:39:22;9.17;;;3.60;;
71464;SDS011;59274;49.874;9.154;2022-07-29T05:41:48;11.02;;;4.55;;
71464;SDS011;59274;49.874;9.154;2022-07-29T05:44:14;10.57;;;4.43;;
71464;SDS011;59274;49.874;9.154;2022-07-29T05:46:40;12.82;;;4.53;;
71464;SDS011;59274;49.874;9.154;2022-07-29T05:49:05;10.83;;;4.40;;
71464;SDS011;59274;49.874;9.154;2022-07-29T05:51:35;9.73;;;4.22;;
71464;SDS011;59274;49.874;9.154;2022-07-29T05:54:01;10.48;;;4.25;;
71464;SDS011;59274;49.874;9.154;2022-07-29T05:56:26;9.67;;;4.87;;
71464;SDS011;59274;49.874;9.154;2022-07-29T05:58:52;11.85;;;4.70;;
71464;SDS011;59274;49.874;9.154;2022-07-29T06:01:18;12.70;;;4.72;;
71464;SDS011;59274;49.874;9.154;2022-07-29T06:03:44;12.40;;;4.50;;
71464;SDS011;59274;49.874;9.154;2022-07-29T06:06:09;11.40;;;4.63;;
71464;SDS011;59274;49.874;9.154;2022-07-29T06:08:35;10.10;;;4.50;;
71464;SDS011;59274;49.874;9.154;2022-07-29T06:11:02;10.93;;;4.20;;
71464;SDS011;59274;49.874;9.154;2022-07-29T06:13:28;12.65;;;4.30;;
71464;SDS011;59274;49.874;9.154;2022-07-29T06:15:54;17.50;;;5.10;;
71464;SDS011;59274;49.874;9.154;2022-07-29T06:18:20;11.67;;;4.30;;
71464;SDS011;59274;49.874;9.154;2022-07-29T06:20:49;15.02;;;5.10;;
71464;SDS011;59274;49.874;9.154;2022-07-29T06:23:15;14.57;;;5.28;;
71464;SDS011;59274;49.874;9.154;2022-07-29T06:25:40;10.60;;;4.73;;
71464;SDS011;59274;49.874;9.154;2022-07-29T06:28:06;15.65;;;5.60;;
71464;SDS011;59274;49.874;9.154;2022-07-29T06:30:31;9.98;;;4.70;;
71464;SDS011;59274;49.874;9.154;2022-07-29T06:32:57;12.73;;;4.97;;
71464;SDS011;59274;49.874;9.154;2022-07-29T06:35:22;9.33;;;4.27;;
71464;SDS011;59274;49.874;9.154;2022-07-29T06:37:48;11.30;;;4.30;;
71464;SDS011;59274;49.874;9.154;2022-07-29T06:40:13;9.20;;;3.70;;
71464;SDS011;59274;49.874;9.154;2022-07-29T06:42:57;11.63;;;3.88;;
71464;SDS011;59274;49.874;9.154;2022-07-29T06:45:23;13.23;;;3.80;;
71464;SDS011;59274;49.874;9.154;2022-07-29T06:47:49;8.38;;;3.90;;
71464;SDS011;59274;49.874;9.154;2022-07-29T06:50:15;6.23;;;3.13;;
71464;SDS011;59274;49.874;9.154;2022-07-29T06:52:41;7.43;;;3.45;;
71464;SDS011;59274;49.874;9.154;2022-07-29T06:55:07;8.10;;;3.60;;
71464;SDS011;59274;49.874;9.154;2022-07-29T06:57:33;8.50;;;3.90;;
71464;SDS011;59274;49.874;9.154;2022-07-29T06:59:59;11.05;;;4.10;;
71464;SDS011;59274;49.874;9.154;2022-07-29T07:02:25;13.65;;;4.20;;
71464;SDS011;59274;49.874;9.154;2022-07-29T07:04:51;9.30;;;3.90;;
71464;SDS011;59274;49.874;9.154;2022-07-29T07:07:17;8.55;;;3.17;;
71464;SDS011;59274;49.874;9.154;2022-07-29T07:09:42;7.27;;;3.27;;
71464;SDS011;59274;49.874;9.154;2022-07-29T07:12:08;7.50;;;3.40;;
71464;SDS011;59274;49.874;9.154;2022-07-29T07:14:34;8.00;;;3.30;;
71464;SDS011;59274;49.874;9.154;2022-07-29T07:16:59;8.13;;;4.00;;
71464;SDS011;59274;49.874;9.154;2022-07-29T07:19:25;7.53;;;3.30;;
71464;SDS011;59274;49.874;9.154;2022-07-29T07:21:52;8.88;;;3.50;;
71464;SDS011;59274;49.874;9.154;2022-07-29T07:24:19;9.07;;;3.55;;
71464;SDS011;59274;49.874;9.154;2022-07-29T07:26:44;7.57;;;3.50;;
71464;SDS011;59274;49.874;9.154;2022-07-29T07:29:10;7.53;;;3.17;;
71464;SDS011;59274;49.874;9.154;2022-07-29T07:31:36;7.50;;;3.10;;
71464;SDS011;59274;49.874;9.154;2022-07-29T07:34:02;9.87;;;3.80;;
71464;SDS011;59274;49.874;9.154;2022-07-29T07:36:28;10.30;;;3.20;;
71464;SDS011;59274;49.874;9.154;2022-07-29T07:38:54;7.70;;;3.00;;
71464;SDS011;59274;49.874;9.154;2022-07-29T07:41:19;7.87;;;2.77;;
71464;SDS011;59274;49.874;9.154;2022-07-29T07:43:45;6.50;;;2.72;;
71464;SDS011;59274;49.874;9.154;2022-07-29T07:46:11;8.75;;;2.78;;
71464;SDS011;59274;49.874;9.154;2022-07-29T07:48:36;7.70;;;2.92;;
71464;SDS011;59274;49.874;9.154;2022-07-29T07:51:01;7.30;;;3.17;;
71464;SDS011;59274;49.874;9.154;2022-07-29T07:53:27;5.93;;;2.47;;
71464;SDS011;59274;49.874;9.154;2022-07-29T07:55:54;5.85;;;3.00;;
71464;SDS011;59274;49.874;9.154;2022-07-29T07:58:20;8.43;;;3.00;;
71464;SDS011;59274;49.874;9.154;2022-07-29T08:00:46;8.13;;;3.65;;
71464;SDS011;59274;49.874;9.154;2022-07-29T08:03:12;6.78;;;3.17;;
71464;SDS011;59274;49.874;9.154;2022-07-29T08:05:39;6.32;;;3.08;;
71464;SDS011;59274;49.874;9.154;2022-07-29T08:08:05;8.45;;;2.95;;
71464;SDS011;59274;49.874;9.154;2022-07-29T08:10:31;9.52;;;2.70;;
71464;SDS011;59274;49.874;9.154;2022-07-29T08:13:15;10.13;;;3.10;;
71464;SDS011;59274;49.874;9.154;2022-07-29T08:15:41;9.37;;;3.30;;
71464;SDS011;59274;49.874;9.154;2022-07-29T08:18:08;7.93;;;2.85;;
71464;SDS011;59274;49.874;9.154;2022-07-29T08:20:33;8.63;;;2.93;;
71464;SDS011;59274;49.874;9.154;2022-07-29T08:23:01;8.40;;;3.17;;
71464;SDS011;59274;49.874;9.154;2022-07-29T08:25:27;9.30;;;3.40;;
71464;SDS011;59274;49.874;9.154;2022-07-29T08:27:53;7.30;;;2.90;;
71464;SDS011;59274;49.874;9.154;2022-07-29T08:30:18;6.87;;;2.93;;
71464;SDS011;59274;49.874;9.154;2022-07-29T08:32:44;6.53;;;3.07;;
71464;SDS011;59274;49.874;9.154;2022-07-29T08:35:09;7.00;;;3.00;;
71464;SDS011;59274;49.874;9.154;2022-07-29T08:37:35;7.60;;;3.00;;
71464;SDS011;59274;49.874;9.154;2022-07-29T08:40:01;6.70;;;2.63;;
71464;SDS011;59274;49.874;9.154;2022-07-29T08:42:26;6.97;;;2.80;;
71464;SDS011;59274;49.874;9.154;2022-07-29T08:44:52;7.50;;;2.83;;
71464;SDS011;59274;49.874;9.154;2022-07-29T08:47:18;4.70;;;2.40;;
71464;SDS011;59274;49.874;9.154;2022-07-29T08:49:44;6.33;;;2.97;;
71464;SDS011;59274;49.874;9.154;2022-07-29T08:52:12;6.05;;;2.83;;
71464;SDS011;59274;49.874;9.154;2022-07-29T08:54:39;6.00;;;2.65;;
71464;SDS011;59274;49.874;9.154;2022-07-29T08:57:08;7.68;;;2.88;;
71464;SDS011;59274;49.874;9.154;2022-07-29T08:59:36;5.67;;;2.43;;
71464;SDS011;59274;49.874;9.154;2022-07-29T09:02:05;5.38;;;2.67;;
71464;SDS011;59274;49.874;9.154;2022-07-29T09:04:41;5.13;;;2.70;;
71464;SDS011;59274;49.874;9.154;2022-07-29T09:07:06;5.95;;;2.85;;
71464;SDS011;59274;49.874;9.154;2022-07-29T09:09:34;5.50;;;2.72;;
71464;SDS011;59274;49.874;9.154;2022-07-29T09:12:00;6.35;;;2.72;;
71464;SDS011;59274;49.874;9.154;2022-07-29T09:14:26;6.68;;;2.70;;
71464;SDS011;59274;49.874;9.154;2022-07-29T09:16:53;6.17;;;2.67;;
71464;SDS011;59274;49.874;9.154;2022-07-29T09:19:38;6.38;;;2.85;;
71464;SDS011;59274;49.874;9.154;2022-07-29T09:22:04;6.50;;;2.40;;
71464;SDS011;59274;49.874;9.154;2022-07-29T09:26:59;6.13;;;2.63;;
71464;SDS011;59274;49.874;9.154;2022-07-29T09:29:25;7.00;;;2.90;;
71464;SDS011;59274;49.874;9.154;2022-07-29T09:31:52;6.30;;;2.90;;
71464;SDS011;59274;49.874;9.154;2022-07-29T09:34:28;6.95;;;3.00;;
71464;SDS011;59274;49.874;9.154;2022-07-29T09:36:56;9.63;;;2.70;;
71464;SDS011;59274;49.874;9.154;2022-07-29T09:42:04;7.97;;;3.17;;
71464;SDS011;59274;49.874;9.154;2022-07-29T09:44:48;8.18;;;3.00;;
71464;SDS011;59274;49.874;9.154;2022-07-29T09:47:15;5.80;;;2.70;;
71464;SDS011;59274;49.874;9.154;2022-07-29T09:49:59;5.60;;;2.50;;
71464;SDS011;59274;49.874;9.154;2022-07-29T09:52:26;5.00;;;2.65;;
71464;SDS011;59274;49.874;9.154;2022-07-29T09:54:52;6.55;;;3.55;;
71464;SDS011;59274;49.874;9.154;2022-07-29T09:57:25;6.07;;;2.92;;
71464;SDS011;59274;49.874;9.154;2022-07-29T09:59:55;7.37;;;3.00;;
71464;SDS011;59274;49.874;9.154;2022-07-29T10:02:43;6.38;;;3.25;;
71464;SDS011;59274;49.874;9.154;2022-07-29T10:05:19;6.57;;;3.13;;
71464;SDS011;59274;49.874;9.154;2022-07-29T10:07:53;6.82;;;3.28;;
71464;SDS011;59274;49.874;9.154;2022-07-29T10:10:30;7.25;;;3.03;;
71464;SDS011;59274;49.874;9.154;2022-07-29T10:13:01;6.72;;;3.00;;
71464;SDS011;59274;49.874;9.154;2022-07-29T10:15:30;7.05;;;3.08;;
71464;SDS011;59274;49.874;9.154;2022-07-29T10:17:57;5.72;;;3.00;;
71464;SDS011;59274;49.874;9.154;2022-07-29T10:20:23;6.97;;;3.28;;
71464;SDS011;59274;49.874;9.154;2022-07-29T10:22:50;6.07;;;2.60;;
71464;SDS011;59274;49.874;9.154;2022-07-29T10:25:16;7.20;;;3.10;;
71464;SDS011;59274;49.874;9.154;2022-07-29T10:27:43;7.78;;;3.10;;
71464;SDS011;59274;49.874;9.154;2022-07-29T10:30:10;5.68;;;2.83;;
71464;SDS011;59274;49.874;9.154;2022-07-29T10:43:59;5.28;;;2.80;;
71464;SDS011;59274;49.874;9.154;2022-07-29T10:46:27;6.07;;;2.90;;
71464;SDS011;59274;49.874;9.154;2022-07-29T10:49:06;5.95;;;2.92;;
71464;SDS011;59274;49.874;9.154;2022-07-29T10:51:50;4.90;;;2.73;;
71464;SDS011;59274;49.874;9.154;2022-07-29T10:54:16;6.13;;;2.90;;
71464;SDS011;59274;49.874;9.154;2022-07-29T10:57:45;5.03;;;2.90;;
71464;SDS011;59274;49.874;9.154;2022-07-29T11:05:18;5.63;;;2.90;;
71464;SDS011;59274;49.874;9.154;2022-07-29T11:10:34;6.13;;;3.50;;
71464;SDS011;59274;49.874;9.154;2022-07-29T11:13:00;7.77;;;3.20;;
71464;SDS011;59274;49.874;9.154;2022-07-29T11:15:26;5.70;;;3.00;;
71464;SDS011;59274;49.874;9.154;2022-07-29T11:20:41;6.85;;;3.33;;
71464;SDS011;59274;49.874;9.154;2022-07-29T11:28:39;6.18;;;3.45;;
71464;SDS011;59274;49.874;9.154;2022-07-29T11:31:15;6.07;;;3.17;;
71464;SDS011;59274;49.874;9.154;2022-07-29T11:33:41;9.00;;;3.30;;
71464;SDS011;59274;49.874;9.154;2022-07-29T11:36:07;6.63;;;3.60;;
71464;SDS011;59274;49.874;9.154;2022-07-29T11:38:35;7.28;;;3.40;;
71464;SDS011;59274;49.874;9.154;2022-07-29T11:43:45;5.65;;;3.20;;
71464;SDS011;59274;49.874;9.154;2022-07-29T11:46:12;5.90;;;3.40;;
71464;SDS011;59274;49.874;9.154;2022-07-29T11:48:41;7.60;;;3.80;;
71464;SDS011;59274;49.874;9.154;2022-07-29T11:51:09;5.95;;;3.60;;
71464;SDS011;59274;49.874;9.154;2022-07-29T11:53:36;7.13;;;3.65;;
71464;SDS011;59274;49.874;9.154;2022-07-29T11:56:03;8.60;;;3.67;;
71464;SDS011;59274;49.874;9.154;2022-07-29T11:58:32;7.05;;;3.65;;
71464;SDS011;59274;49.874;9.154;2022-07-29T12:00:59;6.65;;;3.50;;
71464;SDS011;59274;49.874;9.154;2022-07-29T12:03:27;5.68;;;3.35;;
71464;SDS011;59274;49.874;9.154;2022-07-29T12:05:53;6.13;;;3.22;;
71464;SDS011;59274;49.874;9.154;2022-07-29T12:08:20;6.67;;;3.60;;
71464;SDS011;59274;49.874;9.154;2022-07-29T12:10:48;6.28;;;3.75;;
71464;SDS011;59274;49.874;9.154;2022-07-29T12:13:16;7.63;;;3.88;;
71464;SDS011;59274;49.874;9.154;2022-07-29T12:15:53;5.70;;;3.33;;
71464;SDS011;59274;49.874;9.154;2022-07-29T12:18:22;5.70;;;3.50;;
71464;SDS011;59274;49.874;9.154;2022-07-29T12:20:49;6.80;;;3.70;;
71464;SDS011;59274;49.874;9.154;2022-07-29T12:23:22;5.95;;;3.63;;
71464;SDS011;59274;49.874;9.154;2022-07-29T12:25:47;7.87;;;3.80;;
71464;SDS011;59274;49.874;9.154;2022-07-29T12:28:13;7.10;;;3.93;;
71464;SDS011;59274;49.874;9.154;2022-07-29T12:30:44;6.50;;;3.63;;
71464;SDS011;59274;49.874;9.154;2022-07-29T12:33:26;7.88;;;3.65;;
71464;SDS011;59274;49.874;9.154;2022-07-29T12:35:53;5.28;;;3.30;;
71464;SDS011;59274;49.874;9.154;2022-07-29T12:38:21;7.38;;;3.95;;
71464;SDS011;59274;49.874;9.154;2022-07-29T12:40:48;6.53;;;4.03;;
71464;SDS011;59274;49.874;9.154;2022-07-29T12:43:21;7.07;;;3.78;;
71464;SDS011;59274;49.874;9.154;2022-07-29T12:45:54;8.60;;;3.75;;
71464;SDS011;59274;49.874;9.154;2022-07-29T12:48:41;6.55;;;3.60;;
71464;SDS011;59274;49.874;9.154;2022-07-29T12:51:08;7.57;;;3.67;;
71464;SDS011;59274;49.874;9.154;2022-07-29T12:53:36;7.00;;;3.78;;
71464;SDS011;59274;49.874;9.154;2022-07-29T12:56:03;5.90;;;4.03;;
71464;SDS011;59274;49.874;9.154;2022-07-29T13:01:12;6.25;;;3.60;;
71464;SDS011;59274;49.874;9.154;2022-07-29T13:03:51;6.10;;;3.73;;
71464;SDS011;59274;49.874;9.154;2022-07-29T13:09:10;6.47;;;3.60;;
71464;SDS011;59274;49.874;9.154;2022-07-29T13:11:50;6.57;;;3.78;;
71464;SDS011;59274;49.874;9.154;2022-07-29T13:14:30;5.93;;;3.50;;
71464;SDS011;59274;49.874;9.154;2022-07-29T13:19:45;7.18;;;3.30;;
71464;SDS011;59274;49.874;9.154;2022-07-29T13:22:20;7.57;;;3.58;;
71464;SDS011;59274;49.874;9.154;2022-07-29T13:27:26;6.30;;;3.20;;
71464;SDS011;59274;49.874;9.154;2022-07-29T13:29:53;7.87;;;3.77;;
71464;SDS011;59274;49.874;9.154;2022-07-29T13:32:21;6.90;;;3.58;;
71464;SDS011;59274;49.874;9.154;2022-07-29T13:34:47;6.30;;;3.60;;
71464;SDS011;59274;49.874;9.154;2022-07-29T13:37:14;7.63;;;3.65;;
71464;SDS011;59274;49.874;9.154;2022-07-29T13:39:39;6.47;;;3.30;;
71464;SDS011;59274;49.874;9.154;2022-07-29T13:42:06;8.03;;;3.60;;
71464;SDS011;59274;49.874;9.154;2022-07-29T13:44:32;8.05;;;3.65;;
71464;SDS011;59274;49.874;9.154;2022-07-29T13:46:58;7.27;;;3.40;;
71464;SDS011;59274;49.874;9.154;2022-07-29T13:49:26;7.25;;;3.75;;
71464;SDS011;59274;49.874;9.154;2022-07-29T13:51:52;6.70;;;3.38;;
71464;SDS011;59274;49.874;9.154;2022-07-29T13:54:18;6.35;;;3.63;;
71464;SDS011;59274;49.874;9.154;2022-07-29T13:56:44;7.53;;;3.57;;
71464;SDS011;59274;49.874;9.154;2022-07-29T13:59:09;6.67;;;4.10;;
71464;SDS011;59274;49.874;9.154;2022-07-29T14:01:35;7.70;;;4.20;;
71464;SDS011;59274;49.874;9.154;2022-07-29T14:04:00;8.20;;;4.03;;
71464;SDS011;59274;49.874;9.154;2022-07-29T14:06:26;9.30;;;4.28;;
71464;SDS011;59274;49.874;9.154;2022-07-29T14:08:51;8.77;;;4.30;;
71464;SDS011;59274;49.874;9.154;2022-07-29T14:11:17;9.60;;;4.33;;
71464;SDS011;59274;49.874;9.154;2022-07-29T14:13:44;11.25;;;4.47;;
71464;SDS011;59274;49.874;9.154;2022-07-29T14:16:09;11.27;;;5.00;;
71464;SDS011;59274;49.874;9.154;2022-07-29T14:18:35;6.97;;;4.47;;
71464;SDS011;59274;49.874;9.154;2022-07-29T14:21:00;9.40;;;4.60;;
71464;SDS011;59274;49.874;9.154;2022-07-29T14:23:26;8.70;;;4.80;;
71464;SDS011;59274;49.874;9.154;2022-07-29T14:25:52;11.45;;;5.28;;
71464;SDS011;59274;49.874;9.154;2022-07-29T14:28:17;10.97;;;5.60;;
71464;SDS011;59274;49.874;9.154;2022-07-29T14:30:43;10.63;;;5.03;;
71464;SDS011;59274;49.874;9.154;2022-07-29T14:33:08;9.57;;;5.50;;
71464;SDS011;59274;49.874;9.154;2022-07-29T14:35:34;11.73;;;5.67;;
71464;SDS011;59274;49.874;9.154;2022-07-29T14:37:59;10.48;;;5.10;;
71464;SDS011;59274;49.874;9.154;2022-07-29T14:40:25;11.13;;;5.30;;
71464;SDS011;59274;49.874;9.154;2022-07-29T14:42:50;10.67;;;5.93;;
71464;SDS011;59274;49.874;9.154;2022-07-29T14:45:16;13.93;;;6.70;;
71464;SDS011;59274;49.874;9.154;2022-07-29T14:47:41;13.00;;;6.43;;
71464;SDS011;59274;49.874;9.154;2022-07-29T14:50:07;11.53;;;6.83;;
71464;SDS011;59274;49.874;9.154;2022-07-29T14:52:33;10.77;;;5.88;;
71464;SDS011;59274;49.874;9.154;2022-07-29T14:54:59;8.90;;;5.80;;
71464;SDS011;59274;49.874;9.154;2022-07-29T14:57:24;11.77;;;6.70;;
71464;SDS011;59274;49.874;9.154;2022-07-29T14:59:50;12.07;;;7.40;;
71464;SDS011;59274;49.874;9.154;2022-07-29T15:02:16;10.75;;;6.80;;
71464;SDS011;59274;49.874;9.154;2022-07-29T15:04:41;13.40;;;6.60;;
71464;SDS011;59274;49.874;9.154;2022-07-29T15:07:07;11.25;;;6.35;;
71464;SDS011;59274;49.874;9.154;2022-07-29T15:09:33;12.73;;;6.03;;
71464;SDS011;59274;49.874;9.154;2022-07-29T15:11:58;10.02;;;6.32;;
71464;SDS011;59274;49.874;9.154;2022-07-29T15:14:24;13.13;;;6.47;;
71464;SDS011;59274;49.874;9.154;2022-07-29T15:16:50;14.70;;;7.50;;
71464;SDS011;59274;49.874;9.154;2022-07-29T15:19:15;12.40;;;7.45;;
71464;SDS011;59274;49.874;9.154;2022-07-29T15:21:41;11.20;;;6.05;;
71464;SDS011;59274;49.874;9.154;2022-07-29T15:24:06;9.97;;;6.07;;
71464;SDS011;59274;49.874;9.154;2022-07-29T15:26:32;10.23;;;6.07;;
71464;SDS011;59274;49.874;9.154;2022-07-29T15:28:58;16.47;;;7.23;;
71464;SDS011;59274;49.874;9.154;2022-07-29T15:31:23;17.37;;;8.57;;
71464;SDS011;59274;49.874;9.154;2022-07-29T15:33:49;16.30;;;7.88;;
71464;SDS011;59274;49.874;9.154;2022-07-29T15:36:14;14.43;;;7.03;;
71464;SDS011;59274;49.874;9.154;2022-07-29T15:38:39;10.77;;;6.20;;
71464;SDS011;59274;49.874;9.154;2022-07-29T15:41:06;10.00;;;6.80;;
71464;SDS011;59274;49.874;9.154;2022-07-29T15:43:32;13.13;;;6.27;;
71464;SDS011;59274;49.874;9.154;2022-07-29T15:46:00;10.23;;;5.32;;
71464;SDS011;59274;49.874;9.154;2022-07-29T15:48:44;8.32;;;5.00;;
71464;SDS011;59274;49.874;9.154;2022-07-29T15:51:10;8.35;;;5.18;;